• Join FlightAware (Why Join?)
  • Login
  • US Flag 
01:33AM EDT


 

Airport Tracker/Info


-or-


 

Live Flight TrackerFlight Track Log ✈ SWA3317 ✈ 24-Aug-2013 ✈ KMDW - KBOS

Flight Track Log - Related Links

Times and Time Zones

All times are in EDT time to prevent confusion due to time zone crossing. See the SWA3317 flight status page for this flight to view local times or setup timezone preferences in your user account.

Time Position Orientation Groundspeed Altitude Reporting Facility
EDT Latitude Longitude Course Direction KTS MPH feet Rate Location/Type
11:23AM 41.7833 -87.8000 90° East 215 247 2,700  Level Chicago TRACON
11:23AM 41.8203 -87.7833 19° North 226 260 3,100 720 Climbing Chicago Center
11:24AM 41.8147 -87.7017 95° East 231 266 4,000 900 Climbing Chicago Center
11:25AM 41.8208 -87.5856 86° East 251 289 5,000 1,140 Climbing Chicago Center
11:26AM 41.8244 -87.4811 87° East 273 314 6,400 2,340 Climbing Chicago Center
11:27AM 41.8206 -87.3761 93° East 281 323 9,900 3,240 Climbing Chicago Center
11:28AM 41.7500 -86.8468 90° East  Level FlightAware Approximate
11:28AM 41.7986 -87.2650 105° East 305 351 13,100  Level Chicago Center
11:29AM 41.7761 -87.1381 103° East 340 391 15,100 2,280 Climbing Chicago Center
11:30AM 41.7717 -86.9969 92° East 382 440 17,900 2,760 Climbing Chicago Center
11:32AM 41.7903 -86.8228 82° East 393 452 20,800 2,580 Climbing Chicago Center
11:33AM 41.8067 -86.6697 82° East 408 470 23,200 2,220 Climbing Chicago Center
11:34AM 41.8236 -86.5117 82° East 424 488 25,400 1,980 Climbing Chicago Center
11:35AM 41.8406 -86.3486 82° East 437 503 27,400 1,800 Climbing Chicago Center
11:36AM 41.8575 -86.1817 82° East 450 518 29,200 1,800 Climbing Chicago Center
11:37AM 41.8753 -86.0100 82° East 462 532 31,200 1,980 Climbing Chicago Center
11:38AM 41.8922 -85.8422 82° East 455 524 33,300 1,740 Climbing Chicago Center
11:39AM 41.9094 -85.6742 82° East 453 521 34,900 1,500 Climbing Chicago Center
11:40AM 41.9256 -85.5064 83° East 451 519 36,400 1,020 Climbing Chicago Center
11:41AM 41.9425 -85.3372 82° East 453 521 37,000 240 Climbing Chicago Center
11:42AM 41.9528 -85.1350 86° East 458 527 37,000  Level Chicago Center
11:43AM 41.9508 -84.9661 91° East 456 525 37,000  Level Chicago Center
11:44AM 41.9497 -84.7967 90° East 453 521 37,000  Level Chicago Center
11:45AM 41.9689 -84.6344 81° East 445 512 37,000  Level Chicago Center
11:46AM 41.9894 -84.4653 81° East 441 507 37,000  Level Chicago Center
11:47AM 42.0033 -84.3425 81° East 441 507 37,000  Level Cleveland Center
11:48AM 42.0203 -84.1967 81° East 441 507 37,000  Level Cleveland Center
11:49AM 42.0378 -84.0342 82° East 442 509 37,000  Level Cleveland Center
11:50AM 42.0592 -83.8397 82° East 442 509 37,000  Level Cleveland Center
11:51AM 42.0783 -83.6769 81° East 443 510 37,000  Level Cleveland Center
11:52AM 42.0975 -83.4964 82° East 445 512 37,000  Level Cleveland Center
11:53AM 42.1158 -83.3300 81° East 446 513 37,000  Level Cleveland Center
11:54AM 42.1342 -83.1606 82° East 445 512 37,000  Level Cleveland Center
11:55AM 42.1522 -82.9972 81° East 444 511 37,000 240 Level Cleveland Center
11:56AM 42.1694 -82.8331 82° East 446 513 37,600 900 Climbing Cleveland Center
11:57AM 42.1867 -82.6689 82° East 445 512 38,900 660 Climbing Cleveland Center
11:58AM 42.2036 -82.5050 82° East 444 511 39,000  Climbing Cleveland Center
11:59AM 42.2189 -82.3414 83° East 442 509 39,000  Level Cleveland Center
12:00PM 42.2356 -82.1781 82° East 442 509 39,000  Level Cleveland Center
12:01PM 42.2536 -81.9992 82° East 443 510 39,000  Level Cleveland Center
12:02PM 42.2683 -81.8328 83° East 441 507 39,000  Level Cleveland Center
12:03PM 42.2872 -81.6383 82° East 443 510 39,000  Level Cleveland Center
12:04PM 42.3025 -81.4733 83° East 440 506 39,000  Level Cleveland Center
12:05PM 42.3178 -81.3058 83° East 442 509 39,000  Level Cleveland Center
12:06PM 42.3328 -81.1397 83° East 442 509 39,000  Level Cleveland Center
12:07PM 42.3469 -80.9733 83° East 441 507 39,000  Level Cleveland Center
12:08PM 42.3619 -80.8069 83° East 442 509 39,000  Level Cleveland Center
12:09PM 42.3758 -80.6417 83° East 439 505 39,000  Level Cleveland Center
12:10PM 42.3903 -80.4750 83° East 441 507 39,000  Level Cleveland Center
12:11PM 42.4042 -80.3069 84° East 445 512 39,000  Level Cleveland Center
12:12PM 42.4175 -80.1414 84° East 440 506 39,000  Level Cleveland Center
12:13PM 42.4311 -79.9744 84° East 442 509 39,000  Level Cleveland Center
12:14PM 42.4458 -79.7786 84° East 438 504 39,000  Level Cleveland Center
12:15PM 42.4589 -79.6158 84° East 438 504 39,000  Level Cleveland Center
12:16PM 42.4697 -79.4689 84° East 436 502 39,000  Level Cleveland Center
12:18PM 42.4817 -79.3061 84° East 436 502 39,000  Level Cleveland Center
12:19PM 42.4953 -79.1089 85° East 440 506 39,000  Level Cleveland Center
12:20PM 42.5072 -78.9436 84° East 441 507 39,000  Level Cleveland Center
12:21PM 42.5175 -78.7783 85° East 443 510 39,000  Level Cleveland Center
12:22PM 42.5294 -78.6119 84° East 445 512 39,000  Level Cleveland Center
12:23PM 42.5408 -78.4458 85° East 443 510 39,000  Level Cleveland Center
12:24PM 42.5519 -78.2772 85° East 447 514 39,000  Level Cleveland Center
12:25PM 42.5639 -78.0739 85° East 452 520 39,000  Level Cleveland Center
12:26PM 42.5742 -77.9067 85° East 450 518 39,000  Level Cleveland Center
12:27PM 42.5833 -77.7369 86° East 449 517 39,000  Level Cleveland Center
12:28PM 42.5942 -77.5681 85° East 450 518 39,000  Level Cleveland Center
12:29PM 42.6050 -77.3828 85° East 447 514 39,000  Level Cleveland Center
12:30PM 42.6144 -77.2147 86° East 449 517 39,000  Level Cleveland Center
12:31PM 42.6231 -77.0481 86° East 445 512 39,000  Level Cleveland Center
12:32PM 42.6300 -76.9139 86° East 446 513 39,000  Level Boston Center
12:33PM 42.6383 -76.7472 86° East 446 513 39,000  Level Boston Center
12:34PM 42.6469 -76.5803 86° East 446 513 39,000  Level Boston Center
12:35PM 42.6556 -76.4128 86° East 446 513 39,000  Level Boston Center
12:36PM 42.6644 -76.2303 86° East 446 513 39,000 -480 Level Boston Center
12:37PM 42.6725 -76.0633 86° East 446 513 38,100 -1,020 Descending Boston Center
12:38PM 42.6800 -75.8631 87° East 445 512 37,000 -540 Descending Boston Center
12:39PM 42.6878 -75.6942 86° East 450 518 37,000  Level Boston Center
12:40PM 42.6928 -75.5256 88° East 451 519 37,000  Level Boston Center
12:41PM 42.7003 -75.3592 86° East 447 514 37,000  Level Boston Center
12:42PM 42.7053 -75.1900 88° East 452 520 37,000  Level Boston Center
12:43PM 42.7108 -75.0169 87° East 461 531 37,000  Level Boston Center
12:44PM 42.7186 -74.8175 87° East 446 513 37,000  Level Boston Center
12:45PM 42.7231 -74.6536 88° East 441 507 37,000  Level Boston Center
12:46PM 42.7289 -74.4875 87° East 441 507 37,000  Level Boston Center
12:47PM 42.7336 -74.3206 88° East 443 510 37,000  Level Boston Center
12:48PM 42.7389 -74.1558 87° East 439 505 37,000  Level Boston Center
12:49PM 42.7428 -73.9775 88° East 442 509 37,000  Level Boston Center
12:50PM 42.7467 -73.8094 88° East 444 511 37,000  Level Boston Center
12:51PM 42.7311 -73.6378 97° East 455 524 37,000  Level Boston Center
12:52PM 42.7122 -73.4675 99° East 456 525 37,000 -420 Level Boston Center
12:53PM 42.6939 -73.2958 98° East 457 526 36,200 -2,160 Descending Boston Center
12:54PM 42.6714 -73.0892 98° East 457 526 32,500 -2,940 Descending Boston Center
12:55PM 42.6547 -72.9275 98° East 460 529 30,100 -2,340 Descending Boston Center
12:56PM 42.6342 -72.7625 100° East 444 511 27,800 -2,280 Descending Boston Center
12:57PM 42.6144 -72.6058 100° East 432 497 25,500 -2,280 Descending Boston Center
12:59PM 42.5956 -72.4494 99° East 415 478 23,200 -2,400 Descending Boston Center
01:00PM 42.5747 -72.2719 99° East 397 457 20,600 -2,220 Descending Boston Center
01:01PM 42.5556 -72.1311 100° East 388 447 18,800 -1,980 Descending Boston Center
01:02PM 42.5403 -71.9864 98° East 366 421 16,600 -2,040 Descending Boston Center
01:03PM 42.5278 -71.8508 97° East 367 422 14,600 -1,920 Descending Boston Center
01:04PM 42.5156 -71.7214 97° East 352 405 12,600 -1,800 Descending Boston Center
01:05PM 42.5000 -71.5833 99° East 339 390 11,100 -840 Descending KA90
01:05PM 42.5000 -71.4833 90° East 328 377 11,100 -180 Level KA90
01:07PM 42.4833 -71.3500 100° East 318 366 10,800 -840 Descending KA90
01:08PM 42.4667 -71.2333 101° East 292 336 9,400 -900 Descending KA90
01:09PM 42.4667 -71.1333 90° East 287 330 9,100 -420 Descending KA90
01:10PM 42.4500 -71.0333 103° East 243 280 8,600 -720 Descending KA90
01:11PM 42.3833 -70.9833 151° Southeast 254 292 7,600 -1,020 Descending KA90
01:11PM 42.3333 -70.9500 154° Southeast 250 288 6,800 -1,440 Descending KA90
01:12PM 42.2667 -70.9500 180° South 248 285 5,100 -1,320 Descending KA90
01:14PM 42.2000 -70.9667 190° South 225 259 4,100 -1,020 Descending KA90
01:14PM 42.1833 -71.0333 251° West 200 230 3,100 -720 Descending KA90
01:16PM 42.2333 -71.0500 346° North 170 196 2,600 -660 Descending KA90
01:17PM 42.2667 -71.0500 360° North 171 197 1,800 -900 Descending KA90
01:18PM 42.3167 -71.0333 14° North 155 178 1,000 -840 Descending KA90
01:19PM 42.3500 -71.0167 20° North 138 159 200 -840 Descending KA90